createdAt,value
2022-12-29T00:01:33.449Z,5.37
2022-12-29T00:04:35.758Z,7.80
2022-12-29T00:07:37.983Z,7.12
2022-12-29T00:10:40.152Z,5.07
2022-12-29T00:14:01.055Z,5.43
2022-12-29T00:17:03.919Z,7.15
2022-12-29T00:20:24.835Z,5.62
2022-12-29T00:23:45.616Z,10.15
2022-12-29T00:27:30.145Z,7.90
2022-12-29T00:30:51.063Z,6.35
2022-12-29T00:34:11.980Z,6.18
2022-12-29T00:37:14.311Z,7.55
2022-12-29T00:40:35.203Z,13.00
2022-12-29T00:44:06.566Z,8.80
2022-12-29T00:47:09.484Z,14.00
2022-12-29T00:50:11.720Z,5.55
2022-12-29T00:53:13.987Z,6.72
2022-12-29T00:56:16.206Z,4.65
2022-12-29T00:59:20.861Z,7.53
2022-12-29T01:02:23.200Z,10.75
2022-12-29T01:05:25.548Z,4.20
2022-12-29T01:08:29.448Z,5.45
2022-12-29T01:11:31.610Z,8.05
2022-12-29T01:14:33.964Z,5.37
2022-12-29T01:17:36.329Z,6.28
2022-12-29T01:20:38.507Z,4.97
2022-12-29T01:23:40.711Z,6.47
2022-12-29T01:26:42.947Z,4.15
2022-12-29T01:29:45.148Z,11.70
2022-12-29T01:32:47.337Z,4.28
2022-12-29T01:35:49.584Z,3.17
2022-12-29T01:38:51.904Z,5.07
2022-12-29T01:41:54.082Z,6.72
2022-12-29T01:45:02.720Z,4.00
2022-12-29T01:48:06.874Z,6.25
2022-12-29T01:51:09.206Z,3.70
2022-12-29T01:54:15.959Z,4.47
2022-12-29T01:57:23.657Z,5.43
2022-12-29T02:00:25.883Z,4.37
2022-12-29T02:03:29.644Z,3.40
2022-12-29T02:06:41.026Z,6.78
2022-12-29T02:09:43.844Z,4.37
2022-12-29T02:12:46.588Z,3.55
2022-12-29T02:16:15.111Z,4.32
2022-12-29T02:19:48.112Z,9.20
2022-12-29T02:23:12.297Z,3.42
2022-12-29T02:26:29.252Z,4.28
2022-12-29T02:29:53.266Z,3.92
2022-12-29T02:32:58.229Z,2.97
2022-12-29T02:36:13.902Z,6.05
2022-12-29T02:39:24.339Z,5.47
2022-12-29T02:42:35.759Z,5.20
2022-12-29T02:45:39.729Z,7.93
2022-12-29T02:49:12.333Z,8.77
2022-12-29T02:52:19.638Z,9.82
2022-12-29T02:55:21.814Z,4.93
2022-12-29T02:58:24.331Z,6.97
2022-12-29T03:01:38.714Z,7.68
2022-12-29T03:04:52.321Z,5.90
2022-12-29T03:08:32.917Z,7.45
2022-12-29T03:12:05.567Z,7.37
2022-12-29T03:15:31.459Z,7.40
2022-12-29T03:19:09.345Z,11.38
2022-12-29T03:22:28.340Z,9.88
2022-12-29T03:25:42.737Z,5.72
2022-12-29T03:28:54.683Z,5.80
2022-12-29T03:31:57.479Z,7.12
2022-12-29T03:35:00.182Z,5.00
2022-12-29T03:38:26.037Z,4.32
2022-12-29T03:41:31.543Z,23.08
2022-12-29T03:44:38.893Z,10.32
2022-12-29T03:47:41.084Z,8.00
2022-12-29T03:50:43.383Z,8.50
2022-12-29T03:53:45.671Z,11.18
2022-12-29T03:56:48.043Z,8.18
2022-12-29T03:59:50.271Z,14.90
2022-12-29T04:02:52.665Z,9.75
2022-12-29T04:05:54.866Z,6.80
2022-12-29T04:08:57.059Z,7.05
2022-12-29T04:11:59.317Z,5.07
2022-12-29T04:15:01.574Z,7.68
2022-12-29T04:18:03.876Z,7.05
2022-12-29T04:21:06.571Z,6.03
2022-12-29T04:24:09.902Z,7.80
2022-12-29T04:27:12.181Z,5.55
2022-12-29T04:30:14.410Z,7.62
2022-12-29T04:33:16.745Z,10.55
2022-12-29T04:36:25.351Z,14.57
2022-12-29T04:39:31.857Z,6.13
2022-12-29T04:42:34.130Z,9.32
2022-12-29T04:45:36.573Z,6.62
2022-12-29T04:48:38.773Z,9.05
2022-12-29T04:51:41.016Z,8.93
2022-12-29T04:54:43.202Z,5.37
2022-12-29T04:57:45.450Z,4.75
2022-12-29T05:00:47.747Z,9.15
2022-12-29T05:03:52.386Z,10.52
2022-12-29T05:06:54.621Z,7.95
2022-12-29T05:09:57.010Z,6.05
2022-12-29T05:12:59.593Z,5.12
2022-12-29T05:16:01.845Z,5.95
2022-12-29T05:19:04.061Z,4.90
2022-12-29T05:22:06.231Z,6.22
2022-12-29T05:25:09.589Z,7.28
2022-12-29T05:28:11.835Z,6.75
2022-12-29T05:31:14.201Z,7.90
2022-12-29T05:34:16.496Z,8.02
2022-12-29T05:37:18.737Z,7.18
2022-12-29T05:40:22.093Z,5.00
2022-12-29T05:43:24.294Z,11.73
2022-12-29T05:46:26.497Z,7.47
2022-12-29T05:49:28.745Z,11.88
2022-12-29T05:52:30.931Z,10.57
2022-12-29T05:55:33.277Z,7.10
2022-12-29T05:58:35.514Z,8.98
2022-12-29T06:01:37.936Z,7.60
2022-12-29T06:04:40.182Z,7.37
2022-12-29T06:07:42.472Z,8.02
2022-12-29T06:10:44.688Z,6.28
2022-12-29T06:13:46.868Z,6.22
2022-12-29T06:16:49.118Z,8.52
2022-12-29T06:19:51.456Z,7.87
2022-12-29T06:22:53.629Z,7.12
2022-12-29T06:25:55.894Z,6.15
2022-12-29T06:28:58.086Z,8.23
2022-12-29T06:32:00.417Z,13.77
2022-12-29T06:35:03.612Z,6.93
2022-12-29T06:38:06.687Z,14.20
2022-12-29T06:41:09.345Z,10.90
2022-12-29T06:44:11.596Z,21.17
2022-12-29T06:47:13.798Z,15.30
2022-12-29T06:50:16.079Z,15.25
2022-12-29T06:53:18.331Z,7.82
2022-12-29T06:56:20.493Z,11.43
2022-12-29T06:59:22.951Z,9.07
2022-12-29T07:02:26.566Z,11.43
2022-12-29T07:05:29.030Z,14.73
2022-12-29T07:08:31.296Z,5.55
2022-12-29T07:11:33.553Z,15.18
2022-12-29T07:14:42.560Z,8.68
2022-12-29T07:17:45.646Z,10.35
2022-12-29T07:20:47.854Z,18.10
2022-12-29T07:23:50.090Z,15.23
2022-12-29T07:26:52.889Z,12.82
2022-12-29T07:29:55.032Z,10.80
2022-12-29T07:32:57.832Z,8.63
2022-12-29T07:36:00.903Z,9.48
2022-12-29T07:39:04.201Z,4.07
2022-12-29T07:42:06.384Z,7.82
2022-12-29T07:45:10.320Z,6.62
2022-12-29T07:48:12.519Z,7.12
2022-12-29T07:51:14.842Z,12.20
2022-12-29T07:54:19.419Z,6.00
2022-12-29T07:57:23.988Z,6.00
2022-12-29T08:00:30.436Z,8.77
2022-12-29T08:03:32.683Z,8.73
2022-12-29T08:06:34.905Z,8.68
2022-12-29T08:09:37.181Z,7.10
2022-12-29T08:12:40.160Z,16.65
2022-12-29T08:15:44.805Z,4.32
2022-12-29T08:18:47.067Z,6.97
2022-12-29T08:21:49.327Z,9.18
2022-12-29T08:24:52.338Z,8.55
2022-12-29T08:27:54.525Z,7.53
2022-12-29T08:31:01.587Z,9.85
2022-12-29T08:34:04.456Z,12.82
2022-12-29T08:37:06.758Z,6.53
2022-12-29T08:40:09.731Z,7.75
2022-12-29T08:43:13.739Z,5.28
2022-12-29T08:46:19.399Z,6.87
2022-12-29T08:49:21.623Z,9.20
2022-12-29T08:52:24.187Z,7.90
2022-12-29T08:55:26.328Z,5.53
2022-12-29T08:58:29.038Z,6.60
2022-12-29T09:01:32.051Z,9.15
2022-12-29T09:04:34.652Z,6.62
2022-12-29T09:07:37.172Z,8.55
2022-12-29T09:10:39.410Z,7.60
2022-12-29T09:13:42.127Z,9.65
2022-12-29T09:17:03.535Z,5.68
2022-12-29T09:20:06.365Z,9.82
2022-12-29T09:23:08.674Z,14.52
2022-12-29T09:26:10.936Z,5.72
2022-12-29T09:29:13.163Z,10.13
2022-12-29T09:32:18.596Z,8.93
2022-12-29T09:35:21.563Z,6.28
2022-12-29T09:38:25.029Z,12.70
2022-12-29T09:41:57.319Z,4.12
2022-12-29T09:45:14.496Z,9.93
2022-12-29T09:48:24.372Z,10.15
2022-12-29T09:51:26.904Z,9.43
2022-12-29T09:55:00.499Z,14.75
2022-12-29T09:58:10.424Z,4.95
2022-12-29T10:01:27.325Z,12.15
2022-12-29T10:04:29.687Z,11.75
2022-12-29T10:07:46.435Z,7.85
2022-12-29T10:10:51.674Z,10.63
2022-12-29T10:14:45.010Z,9.88
2022-12-29T10:17:59.324Z,8.02
2022-12-29T10:21:24.973Z,6.55
2022-12-29T10:24:28.939Z,13.30
2022-12-29T10:27:33.002Z,10.90
2022-12-29T10:30:35.873Z,7.90
2022-12-29T10:33:41.770Z,7.55
2022-12-29T10:36:48.413Z,11.35
2022-12-29T10:39:54.588Z,4.72
2022-12-29T10:42:59.251Z,8.35
2022-12-29T10:46:08.543Z,6.12
2022-12-29T10:49:22.297Z,12.95
2022-12-29T10:52:26.201Z,6.93
2022-12-29T10:55:38.158Z,8.10
2022-12-29T10:58:41.672Z,5.65
2022-12-29T11:02:06.253Z,13.00
2022-12-29T11:05:20.635Z,6.43
2022-12-29T11:08:27.733Z,17.35
2022-12-29T11:11:38.027Z,13.98
2022-12-29T11:14:41.748Z,13.30
2022-12-29T11:17:50.284Z,9.70
2022-12-29T11:21:00.202Z,9.05
2022-12-29T11:24:06.761Z,7.12
2022-12-29T11:27:23.714Z,10.52
2022-12-29T11:30:32.021Z,9.80
2022-12-29T11:33:36.233Z,7.12
2022-12-29T11:36:39.610Z,18.08
2022-12-29T11:39:44.634Z,9.13
2022-12-29T11:42:53.935Z,8.88
2022-12-29T11:45:57.614Z,9.93
2022-12-29T11:49:01.621Z,8.93
2022-12-29T11:52:04.166Z,10.05
2022-12-29T11:55:16.982Z,11.05
2022-12-29T11:58:19.208Z,11.93
2022-12-29T12:01:32.227Z,7.03
2022-12-29T12:04:36.818Z,12.23
2022-12-29T12:07:46.371Z,13.90
2022-12-29T12:11:00.326Z,12.45
2022-12-29T12:14:16.833Z,11.80
2022-12-29T12:17:24.680Z,18.35
2022-12-29T12:20:53.763Z,17.60
2022-12-29T12:24:30.151Z,10.73
2022-12-29T12:27:43.467Z,10.50
2022-12-29T12:30:51.116Z,14.68
2022-12-29T12:34:02.341Z,6.95
2022-12-29T12:37:27.388Z,9.88
2022-12-29T12:40:32.471Z,10.70
2022-12-29T12:43:42.003Z,9.55
2022-12-29T12:47:29.017Z,8.07
2022-12-29T12:51:03.030Z,11.70
2022-12-29T12:54:11.183Z,10.43
2022-12-29T12:57:22.536Z,8.80
2022-12-29T13:00:25.335Z,10.27
2022-12-29T13:03:43.206Z,14.23
2022-12-29T13:06:57.169Z,16.23
2022-12-29T13:10:20.462Z,13.75
2022-12-29T13:13:54.834Z,14.02
2022-12-29T13:17:23.050Z,14.20
2022-12-29T13:20:47.087Z,17.05
2022-12-29T13:23:57.127Z,12.20
2022-12-29T13:27:06.131Z,11.82
2022-12-29T13:30:17.064Z,15.13
2022-12-29T13:33:49.468Z,11.63
2022-12-29T13:37:18.354Z,7.97
2022-12-29T13:40:25.226Z,6.53
2022-12-29T13:43:28.507Z,10.55
2022-12-29T13:46:42.102Z,15.95
2022-12-29T13:49:45.240Z,8.40
2022-12-29T13:53:14.896Z,10.10
2022-12-29T13:56:25.846Z,11.12
2022-12-29T13:59:41.898Z,13.32
2022-12-29T14:02:47.394Z,9.93
2022-12-29T14:06:19.538Z,16.00
2022-12-29T14:09:35.604Z,16.62
2022-12-29T14:12:41.332Z,14.10
2022-12-29T14:15:46.180Z,17.98
2022-12-29T14:18:48.418Z,14.25
2022-12-29T14:21:55.812Z,17.05
2022-12-29T14:24:58.062Z,18.02
2022-12-29T14:28:00.346Z,13.15
2022-12-29T14:31:15.804Z,16.27
2022-12-29T14:34:20.778Z,12.18
2022-12-29T14:37:29.785Z,5.35
2022-12-29T14:40:31.962Z,9.20
2022-12-29T14:43:34.188Z,16.30
2022-12-29T14:47:07.812Z,6.22
2022-12-29T14:50:16.611Z,13.25
2022-12-29T14:53:43.722Z,8.55
2022-12-29T14:56:45.963Z,10.95
2022-12-29T14:59:48.873Z,8.23
2022-12-29T15:03:01.280Z,9.30
2022-12-29T15:06:09.768Z,21.30
2022-12-29T15:09:50.250Z,15.30
2022-12-29T15:12:56.192Z,12.10
2022-12-29T15:15:58.483Z,13.15
2022-12-29T15:19:00.799Z,10.32
2022-12-29T15:22:03.090Z,15.73
2022-12-29T15:25:05.760Z,13.52
2022-12-29T15:28:08.153Z,17.17
2022-12-29T15:31:30.662Z,18.10
2022-12-29T15:34:33.336Z,14.10
2022-12-29T15:37:38.887Z,20.05
2022-12-29T15:40:41.127Z,14.82
2022-12-29T15:44:07.885Z,11.75
2022-12-29T15:47:19.410Z,13.27
2022-12-29T15:53:36.161Z,11.05
2022-12-29T15:56:38.476Z,11.38
2022-12-29T15:59:47.917Z,14.55
2022-12-29T16:02:50.430Z,7.90
2022-12-29T16:05:58.335Z,19.92
2022-12-29T16:09:05.415Z,11.88
2022-12-29T16:12:16.474Z,15.13
2022-12-29T16:15:19.081Z,13.10
2022-12-29T16:18:25.697Z,9.20
2022-12-29T16:21:33.854Z,12.25
2022-12-29T16:24:38.369Z,24.02
2022-12-29T16:27:42.473Z,22.55
2022-12-29T16:30:44.707Z,33.53
2022-12-29T16:33:49.893Z,22.10
2022-12-29T16:37:03.681Z,24.98
2022-12-29T16:40:27.114Z,15.63
2022-12-29T16:43:35.708Z,14.90
2022-12-29T16:46:39.100Z,12.82
2022-12-29T16:49:44.113Z,12.90
2022-12-29T16:52:50.063Z,19.75
2022-12-29T16:55:56.401Z,31.37
2022-12-29T16:59:22.779Z,23.65
2022-12-29T17:02:28.389Z,21.87
2022-12-29T17:05:30.756Z,24.35
2022-12-29T17:08:41.474Z,23.08
2022-12-29T17:12:01.528Z,24.60
2022-12-29T17:15:27.985Z,15.43
2022-12-29T17:18:30.780Z,28.58
2022-12-29T17:21:32.958Z,29.85
2022-12-29T17:24:36.579Z,34.63
2022-12-29T17:27:51.575Z,30.98
2022-12-29T17:30:56.988Z,20.60
2022-12-29T17:34:00.323Z,21.42
2022-12-29T17:37:02.586Z,18.48
2022-12-29T17:40:11.177Z,16.80
2022-12-29T17:43:14.984Z,16.30
2022-12-29T17:46:17.238Z,14.32
2022-12-29T17:49:19.452Z,19.70
2022-12-29T17:52:21.887Z,21.62
2022-12-29T17:55:29.944Z,19.62
2022-12-29T17:58:35.230Z,21.12
2022-12-29T18:01:40.984Z,12.63
2022-12-29T18:04:45.869Z,20.48
2022-12-29T18:07:49.237Z,13.80
2022-12-29T18:10:52.053Z,15.23
2022-12-29T18:13:54.681Z,16.27
2022-12-29T18:16:56.875Z,16.62
2022-12-29T18:19:59.305Z,14.32
2022-12-29T18:23:01.516Z,20.35
2022-12-29T18:26:06.158Z,20.17
2022-12-29T18:29:08.358Z,18.48
2022-12-29T18:32:14.427Z,16.45
2022-12-29T18:35:25.553Z,10.25
2022-12-29T18:38:28.700Z,11.75
2022-12-29T18:41:30.984Z,10.77
2022-12-29T18:44:33.920Z,11.18
2022-12-29T18:47:36.110Z,10.43
2022-12-29T18:50:38.323Z,10.90
2022-12-29T18:53:40.537Z,13.05
2022-12-29T18:56:43.112Z,13.10
2022-12-29T18:59:45.358Z,18.92
2022-12-29T19:02:49.632Z,18.10
2022-12-29T19:05:51.936Z,22.52
2022-12-29T19:08:54.142Z,75.93
2022-12-29T19:11:56.354Z,107.45
2022-12-29T19:14:58.795Z,83.05
2022-12-29T19:18:41.747Z,42.95
2022-12-29T19:21:24.956Z,38.67
2022-12-29T19:24:27.297Z,45.35
2022-12-29T19:27:31.751Z,104.32
2022-12-29T19:30:35.062Z,45.53
2022-12-29T19:33:37.873Z,17.75
2022-12-29T19:36:40.077Z,13.35
2022-12-29T19:39:42.342Z,8.77
2022-12-29T19:42:44.803Z,13.35
2022-12-29T19:45:47.331Z,16.45
2022-12-29T19:48:50.468Z,11.85
2022-12-29T19:51:52.903Z,17.42
2022-12-29T19:54:55.491Z,18.87
2022-12-29T19:57:58.010Z,14.48
2022-12-29T20:01:12.552Z,9.48
2022-12-29T20:04:14.819Z,9.65
2022-12-29T20:07:18.004Z,10.32
2022-12-29T20:10:20.176Z,9.57
2022-12-29T20:13:22.467Z,16.92
2022-12-29T20:16:25.112Z,15.57
2022-12-29T20:19:27.475Z,21.48
2022-12-29T20:22:30.884Z,11.60
2022-12-29T20:25:48.680Z,16.80
2022-12-29T20:28:51.192Z,15.20
2022-12-29T20:31:54.209Z,14.93
2022-12-29T20:34:56.429Z,9.32
2022-12-29T20:37:58.618Z,11.02
2022-12-29T20:41:00.930Z,12.93
2022-12-29T20:44:05.268Z,12.02
2022-12-29T20:47:08.328Z,23.90
2022-12-29T20:50:10.568Z,16.67
2022-12-29T20:53:12.907Z,16.35
2022-12-29T20:56:17.325Z,13.80
2022-12-29T20:59:28.366Z,11.18
2022-12-29T21:02:31.313Z,19.60
2022-12-29T21:05:36.571Z,13.00
2022-12-29T21:08:39.740Z,9.48
2022-12-29T21:11:41.946Z,13.27
2022-12-29T21:14:45.910Z,10.05
2022-12-29T21:17:48.610Z,10.57
2022-12-29T21:21:06.151Z,27.98
2022-12-29T21:24:08.437Z,18.65
2022-12-29T21:27:10.660Z,15.25
2022-12-29T21:30:13.484Z,15.32
2022-12-29T21:33:19.836Z,14.30
2022-12-29T21:36:22.556Z,12.77
2022-12-29T21:39:24.928Z,18.20
2022-12-29T21:42:30.126Z,22.17
2022-12-29T21:45:32.659Z,19.02
2022-12-29T21:48:35.103Z,8.60
2022-12-29T21:51:53.893Z,16.60
2022-12-29T21:55:02.330Z,17.52
2022-12-29T21:58:23.064Z,14.52
2022-12-29T22:01:45.221Z,13.20
2022-12-29T22:05:06.021Z,13.00
2022-12-29T22:08:26.767Z,16.43
2022-12-29T22:11:47.669Z,14.93
2022-12-29T22:14:49.924Z,19.87
2022-12-29T22:17:53.584Z,16.37
2022-12-29T22:20:55.771Z,14.63
2022-12-29T22:23:57.940Z,20.98
2022-12-29T22:27:00.915Z,14.50
2022-12-29T22:30:03.562Z,10.25
2022-12-29T22:33:05.772Z,13.95
2022-12-29T22:36:08.141Z,12.32
2022-12-29T22:39:10.596Z,9.10
2022-12-29T22:42:12.977Z,23.30
2022-12-29T22:45:15.262Z,12.85
2022-12-29T22:48:17.457Z,12.73
2022-12-29T22:51:19.581Z,13.65
2022-12-29T22:54:22.055Z,17.10
2022-12-29T22:57:24.293Z,17.40
2022-12-29T23:00:26.500Z,12.00
2022-12-29T23:03:28.975Z,14.20
2022-12-29T23:06:32.001Z,12.65
2022-12-29T23:09:34.224Z,22.70
2022-12-29T23:12:36.489Z,11.88
2022-12-29T23:15:38.772Z,10.13
2022-12-29T23:18:41.295Z,15.60
2022-12-29T23:21:43.494Z,16.87
2022-12-29T23:24:45.681Z,14.15
2022-12-29T23:27:47.850Z,13.57
2022-12-29T23:30:50.083Z,10.07
2022-12-29T23:33:52.562Z,10.63
2022-12-29T23:36:54.813Z,13.02
2022-12-29T23:39:56.983Z,13.90
2022-12-29T23:42:59.244Z,9.15
2022-12-29T23:46:09.255Z,10.90
2022-12-29T23:49:11.481Z,9.45
2022-12-29T23:52:13.693Z,18.75
2022-12-29T23:55:15.968Z,11.70
2022-12-29T23:58:18.136Z,12.68
